Time;durP1;ratioP1;P1;durP2;ratioP2;P2;SDS_P1;SDS_P2;PMS_P1;PMS_P2;Temp;Humidity;BMP_temperature;BMP_pressure;BME280_temperature;BME280_humidity;BME280_pressure;Samples;Min_cycle;Max_cycle;Signal;HPM_P1;HPM_P2
2023/12/22 00:02:20;;;;;;;18.25;2.80;;;6.70;99.90;;;;;;4993396;28;20500;-89
2023/12/22 00:04:46;;;;;;;16.67;2.78;;;6.70;99.90;;;;;;4994116;28;20516;-89
2023/12/22 00:07:11;;;;;;;9.93;1.92;;;6.70;99.90;;;;;;4993749;28;20080;-90
2023/12/22 00:09:37;;;;;;;7.28;1.95;;;6.70;99.90;;;;;;5010630;28;20120;-89
2023/12/22 00:12:03;;;;;;;16.13;2.78;;;6.70;99.90;;;;;;5009988;28;20045;-89
2023/12/22 00:14:29;;;;;;;11.73;2.20;;;6.70;99.90;;;;;;4996948;28;20041;-89
2023/12/22 00:16:55;;;;;;;12.27;2.38;;;6.70;99.90;;;;;;5012911;28;20052;-89
2023/12/22 00:19:20;;;;;;;17.70;3.05;;;6.60;99.90;;;;;;5013457;28;20037;-89
2023/12/22 00:21:46;;;;;;;12.80;2.40;;;6.60;99.90;;;;;;5014544;28;20037;-89
2023/12/22 00:24:11;;;;;;;17.05;2.88;;;6.70;99.90;;;;;;4997555;28;20602;-90
2023/12/22 00:26:37;;;;;;;8.90;2.13;;;6.60;99.90;;;;;;5014131;28;20037;-89
2023/12/22 00:29:02;;;;;;;14.63;2.75;;;6.70;99.90;;;;;;4997659;28;20538;-89
2023/12/22 00:31:28;;;;;;;16.92;3.13;;;6.70;99.90;;;;;;4997627;28;20034;-89
2023/12/22 00:33:54;;;;;;;11.48;2.13;;;6.70;99.90;;;;;;5013530;28;20041;-90
2023/12/22 00:36:23;;;;;;;19.10;3.33;;;6.60;99.90;;;;;;4997514;28;20581;-89
2023/12/22 00:38:48;;;;;;;13.57;2.65;;;6.70;99.90;;;;;;4998316;28;20034;-89
2023/12/22 00:41:14;;;;;;;14.95;2.28;;;6.70;99.90;;;;;;4999794;28;20038;-89
2023/12/22 00:43:40;;;;;;;15.68;2.72;;;6.60;99.90;;;;;;5016995;28;20041;-89
2023/12/22 00:46:05;;;;;;;15.73;2.53;;;6.60;99.90;;;;;;5010872;28;20559;-89
2023/12/22 00:48:31;;;;;;;13.25;2.45;;;6.60;99.90;;;;;;4998711;28;20033;-89
2023/12/22 00:50:58;;;;;;;16.38;3.65;;;6.60;99.90;;;;;;4997193;28;20413;-89
2023/12/22 00:53:23;;;;;;;15.02;2.78;;;6.60;99.90;;;;;;5012994;28;20520;-89
2023/12/22 00:55:49;;;;;;;18.80;3.08;;;6.60;99.90;;;;;;5013362;28;20049;-89
2023/12/22 00:58:14;;;;;;;8.95;2.67;;;6.60;99.90;;;;;;4997253;28;20677;-89
2023/12/22 01:00:40;;;;;;;9.98;2.15;;;6.60;99.90;;;;;;4997342;28;20119;-90
2023/12/22 01:03:05;;;;;;;6.22;1.40;;;6.60;99.90;;;;;;4996736;28;20037;-90
2023/12/22 01:05:31;;;;;;;6.30;1.15;;;6.60;99.90;;;;;;5014110;28;20068;-90
2023/12/22 01:07:57;;;;;;;7.80;1.05;;;6.50;99.90;;;;;;4996473;28;20037;-89
2023/12/22 01:10:22;;;;;;;6.60;1.13;;;6.40;99.90;;;;;;5013275;28;20103;-89
2023/12/22 01:12:48;;;;;;;6.40;1.17;;;6.40;99.90;;;;;;5012631;28;20041;-89
2023/12/22 01:15:13;;;;;;;13.25;2.05;;;6.40;99.90;;;;;;4996596;28;20496;-89
2023/12/22 01:17:39;;;;;;;11.77;1.60;;;6.40;99.90;;;;;;4996859;28;20033;-89
2023/12/22 01:20:05;;;;;;;19.05;2.45;;;6.40;99.90;;;;;;5012971;28;20041;-89
2023/12/22 01:22:32;;;;;;;14.15;1.73;;;6.40;99.90;;;;;;4996977;28;20077;-89
2023/12/22 01:24:57;;;;;;;13.35;2.03;;;6.40;99.90;;;;;;4996522;28;20030;-89
2023/12/22 01:27:23;;;;;;;10.20;1.45;;;6.50;99.90;;;;;;4996779;28;20103;-90
2023/12/22 01:29:48;;;;;;;11.20;1.85;;;6.50;99.90;;;;;;5013786;28;20447;-89
2023/12/22 01:32:14;;;;;;;16.42;2.80;;;6.50;99.90;;;;;;4996479;28;20040;-90
2023/12/22 01:34:40;;;;;;;16.83;3.53;;;6.50;99.90;;;;;;4996468;28;20085;-90
2023/12/22 01:37:06;;;;;;;13.13;2.95;;;6.50;99.90;;;;;;5013113;28;20037;-90
2023/12/22 01:39:31;;;;;;;16.05;2.78;;;6.50;99.90;;;;;;5012288;28;20037;-90
2023/12/22 01:41:57;;;;;;;15.20;2.83;;;6.50;99.90;;;;;;5012865;28;20041;-89
2023/12/22 01:44:22;;;;;;;9.85;1.50;;;6.50;99.90;;;;;;5011232;28;20068;-89
2023/12/22 01:46:50;;;;;;;9.18;2.08;;;6.50;99.90;;;;;;5012609;28;20091;-89
2023/12/22 01:49:16;;;;;;;13.73;3.05;;;6.50;99.90;;;;;;5012335;28;20048;-90
2023/12/22 01:51:42;;;;;;;13.85;1.80;;;6.50;99.90;;;;;;4996122;28;20063;-90
2023/12/22 01:54:08;;;;;;;14.07;1.75;;;6.50;99.90;;;;;;5012700;28;20041;-90
2023/12/22 01:56:34;;;;;;;16.27;2.22;;;6.50;99.90;;;;;;4995568;28;20427;-89
2023/12/22 01:59:01;;;;;;;14.90;2.35;;;6.50;99.90;;;;;;4995995;28;20065;-90
2023/12/22 02:01:28;;;;;;;9.95;2.08;;;6.50;99.90;;;;;;5011908;28;20096;-89
2023/12/22 02:03:54;;;;;;;11.55;2.05;;;6.50;99.90;;;;;;4996076;28;20507;-90
2023/12/22 02:06:20;;;;;;;9.73;1.95;;;6.50;99.90;;;;;;4996106;28;20041;-90
2023/12/22 02:08:47;;;;;;;8.43;1.58;;;6.50;99.90;;;;;;5011938;28;20044;-90
2023/12/22 02:11:16;;;;;;;13.57;2.05;;;6.50;99.90;;;;;;4995706;28;20045;-89
2023/12/22 02:13:43;;;;;;;6.43;1.15;;;6.50;99.90;;;;;;5011146;28;20459;-90
2023/12/22 02:16:41;;;;;;;4.85;1.38;;;6.50;99.90;;;;;;5012238;28;20573;-90
2023/12/22 02:19:38;;;;;;;6.57;1.67;;;6.40;99.90;;;;;;5012181;28;20045;-89
2023/12/22 02:22:05;;;;;;;12.82;2.53;;;6.30;99.90;;;;;;4995383;28;20124;-89
2023/12/22 02:24:31;;;;;;;15.40;2.72;;;6.20;99.90;;;;;;4996150;28;20116;-89
2023/12/22 02:27:15;;;;;;;14.35;1.95;;;6.20;99.90;;;;;;5011336;28;20116;-89
2023/12/22 02:29:50;;;;;;;10.55;2.03;;;6.20;99.90;;;;;;4996511;28;20048;-89
2023/12/22 02:32:27;;;;;;;15.07;3.00;;;6.20;99.90;;;;;;5011806;28;20054;-90
2023/12/22 02:34:56;;;;;;;12.35;2.20;;;6.20;99.90;;;;;;5011914;28;20046;-89
2023/12/22 02:37:23;;;;;;;15.45;2.83;;;6.20;99.90;;;;;;4994842;28;20038;-89
2023/12/22 02:39:51;;;;;;;17.77;2.90;;;6.20;99.90;;;;;;5012003;28;20041;-89
2023/12/22 02:42:19;;;;;;;8.65;2.85;;;6.30;99.90;;;;;;5010684;28;20053;-89
2023/12/22 02:44:45;;;;;;;14.48;2.17;;;6.30;99.90;;;;;;5011345;28;20037;-89
2023/12/22 02:47:11;;;;;;;10.88;1.70;;;6.30;99.90;;;;;;4995870;28;20033;-90
2023/12/22 02:49:36;;;;;;;9.88;2.42;;;6.30;99.90;;;;;;5011532;28;20124;-89
2023/12/22 02:52:02;;;;;;;4.47;1.13;;;6.40;99.90;;;;;;4994991;28;20531;-89
2023/12/22 02:54:29;;;;;;;6.75;1.42;;;6.40;99.90;;;;;;5010895;28;20042;-90
2023/12/22 02:56:55;;;;;;;10.38;1.67;;;6.60;99.90;;;;;;4996305;28;20626;-90
2023/12/22 02:59:21;;;;;;;6.57;1.45;;;6.60;99.90;;;;;;5013793;28;20128;-90
2023/12/22 03:01:46;;;;;;;6.95;1.30;;;6.50;99.90;;;;;;5020721;28;20041;-91
2023/12/22 03:04:12;;;;;;;11.60;1.90;;;6.50;99.90;;;;;;5002209;28;20068;-90
2023/12/22 03:06:37;;;;;;;8.60;1.00;;;6.50;99.90;;;;;;4995365;28;20124;-90
2023/12/22 03:09:03;;;;;;;4.63;1.38;;;6.50;99.90;;;;;;4994779;28;20044;-90
2023/12/22 03:11:29;;;;;;;8.43;1.52;;;6.50;99.90;;;;;;4995441;28;20037;-90
2023/12/22 03:13:54;;;;;;;8.57;1.40;;;6.50;99.90;;;;;;4993996;28;20451;-89
2023/12/22 03:16:20;;;;;;;9.65;1.17;;;6.50;99.90;;;;;;4994861;28;20566;-90
2023/12/22 03:18:46;;;;;;;4.40;0.93;;;6.50;99.90;;;;;;4995339;28;20107;-89
2023/12/22 03:21:19;;;;;;;6.07;0.70;;;6.60;99.90;;;;;;4993990;28;20595;-90
2023/12/22 03:23:45;;;;;;;13.45;1.90;;;6.50;99.90;;;;;;5011966;28;20496;-87
2023/12/22 03:26:10;;;;;;;10.15;1.60;;;6.50;99.90;;;;;;5011579;28;20778;-89
2023/12/22 03:28:36;;;;;;;10.52;1.30;;;6.50;99.90;;;;;;5011328;28;20033;-88
2023/12/22 03:31:02;;;;;;;7.88;1.33;;;6.50;99.90;;;;;;4994717;28;20548;-89
2023/12/22 03:33:28;;;;;;;6.43;1.20;;;6.40;99.90;;;;;;4994391;28;20033;-88
2023/12/22 03:35:53;;;;;;;2.47;0.60;;;6.30;99.90;;;;;;4995071;28;20111;-90
2023/12/22 03:38:19;;;;;;;6.38;1.20;;;6.30;99.90;;;;;;4995067;28;20033;-89
2023/12/22 03:40:45;;;;;;;5.38;0.63;;;6.30;99.90;;;;;;4994687;28;20044;-90
2023/12/22 03:43:10;;;;;;;6.88;1.35;;;6.30;99.90;;;;;;5011013;28;20099;-90
2023/12/22 03:45:36;;;;;;;5.57;1.17;;;6.20;99.90;;;;;;5010603;28;20033;-89
2023/12/22 03:48:02;;;;;;;3.13;1.02;;;6.10;99.90;;;;;;5010542;28;20129;-89
2023/12/22 03:50:27;;;;;;;6.75;1.30;;;6.10;99.90;;;;;;5010036;28;20041;-89
2023/12/22 03:52:53;;;;;;;2.00;0.32;;;6.10;99.90;;;;;;4994162;28;20751;-89
2023/12/22 03:55:18;;;;;;;3.40;1.15;;;6.10;99.90;;;;;;5009333;28;20044;-89
2023/12/22 03:57:44;;;;;;;9.93;1.02;;;6.00;99.90;;;;;;5010468;28;20041;-89
2023/12/22 04:00:10;;;;;;;6.95;1.58;;;6.00;99.90;;;;;;4994080;28;20037;-89
2023/12/22 04:02:36;;;;;;;8.13;1.20;;;6.00;99.90;;;;;;5009781;28;20038;-89
2023/12/22 04:05:01;;;;;;;6.20;1.95;;;6.00;99.90;;;;;;4994333;28;20045;-89
2023/12/22 04:07:27;;;;;;;4.90;0.70;;;6.00;99.90;;;;;;4993854;28;20409;-89
2023/12/22 04:09:52;;;;;;;5.85;1.40;;;6.00;99.90;;;;;;4993949;28;20072;-89
2023/12/22 04:12:18;;;;;;;3.97;0.57;;;6.00;99.90;;;;;;4994351;28;20133;-89
2023/12/22 04:14:44;;;;;;;1.95;0.80;;;5.90;99.90;;;;;;5009826;28;20505;-89
2023/12/22 04:17:10;;;;;;;3.30;0.25;;;5.90;99.90;;;;;;4994276;28;20103;-90
2023/12/22 04:19:36;;;;;;;4.30;0.80;;;5.90;99.90;;;;;;4993323;28;20037;-89
2023/12/22 04:22:02;;;;;;;6.68;0.98;;;5.90;99.90;;;;;;5009726;28;20047;-89
2023/12/22 04:24:28;;;;;;;3.67;0.60;;;5.90;99.90;;;;;;5009358;28;20034;-89
2023/12/22 04:26:53;;;;;;;6.13;1.40;;;5.90;99.90;;;;;;4993157;28;20140;-89
2023/12/22 04:29:19;;;;;;;4.47;1.45;;;5.90;99.90;;;;;;5009337;28;20123;-90
2023/12/22 04:31:45;;;;;;;7.97;1.15;;;5.90;99.90;;;;;;4994310;28;20103;-89
2023/12/22 04:34:13;;;;;;;2.53;0.50;;;5.80;99.90;;;;;;5009646;28;20069;-89
2023/12/22 04:36:39;;;;;;;7.80;1.02;;;5.80;99.90;;;;;;5010617;28;20573;-89
2023/12/22 04:39:05;;;;;;;1.17;0.55;;;5.90;99.90;;;;;;5010256;28;20564;-89
2023/12/22 04:41:30;;;;;;;3.72;0.65;;;5.90;99.90;;;;;;4993005;28;20038;-89
2023/12/22 04:43:56;;;;;;;4.20;1.02;;;5.90;99.90;;;;;;4992781;28;20408;-89
2023/12/22 04:46:22;;;;;;;5.88;0.68;;;5.90;99.90;;;;;;4991872;28;20132;-89
2023/12/22 04:48:47;;;;;;;8.20;0.90;;;6.00;99.90;;;;;;5009780;28;20034;-90
2023/12/22 04:51:13;;;;;;;7.30;2.53;;;5.90;99.90;;;;;;5008640;28;20050;-89
2023/12/22 04:53:38;;;;;;;4.85;0.88;;;6.00;99.90;;;;;;4993288;28;20139;-90
2023/12/22 04:56:04;;;;;;;10.38;2.33;;;6.00;99.90;;;;;;4994002;28;20520;-89
2023/12/22 04:58:30;;;;;;;4.45;1.08;;;6.00;99.90;;;;;;4992908;28;20516;-89
2023/12/22 05:00:56;;;;;;;5.95;1.00;;;6.00;99.90;;;;;;5013862;28;20566;-89
2023/12/22 05:03:22;;;;;;;5.97;0.85;;;6.00;99.90;;;;;;5013233;28;20083;-89
2023/12/22 05:05:47;;;;;;;7.63;1.10;;;6.10;99.90;;;;;;4997012;28;20040;-89
2023/12/22 05:08:13;;;;;;;4.13;0.95;;;6.10;99.90;;;;;;4996979;28;20041;-89
2023/12/22 05:10:38;;;;;;;4.28;0.75;;;6.10;99.90;;;;;;4996571;28;20045;-89
2023/12/22 05:13:04;;;;;;;7.38;1.75;;;6.10;99.90;;;;;;5013938;28;20083;-89
2023/12/22 05:15:30;;;;;;;11.07;1.58;;;6.20;99.90;;;;;;5016419;28;20033;-90
2023/12/22 05:17:55;;;;;;;9.30;2.40;;;6.20;99.90;;;;;;5003075;28;20662;-89
2023/12/22 05:20:21;;;;;;;1.48;0.47;;;6.30;99.90;;;;;;5008373;28;20144;-89
2023/12/22 05:22:46;;;;;;;8.18;1.65;;;6.30;99.90;;;;;;4996269;28;20042;-89
2023/12/22 05:25:13;;;;;;;10.00;1.27;;;6.30;99.90;;;;;;4996013;28;20041;-89
2023/12/22 05:27:41;;;;;;;7.90;2.05;;;6.40;99.90;;;;;;4996409;28;20036;-89
2023/12/22 05:30:07;;;;;;;1.33;0.28;;;6.40;99.90;;;;;;4995035;28;20044;-89
2023/12/22 05:32:33;;;;;;;4.97;1.92;;;6.40;99.90;;;;;;4996002;28;20052;-89
2023/12/22 05:34:58;;;;;;;4.75;0.57;;;6.50;99.90;;;;;;5011685;28;20042;-89
2023/12/22 05:37:24;;;;;;;9.63;2.38;;;6.50;99.90;;;;;;5012529;28;20052;-89
2023/12/22 05:39:49;;;;;;;34.13;2.35;;;6.60;99.90;;;;;;4996604;28;20436;-89
2023/12/22 05:42:15;;;;;;;4.18;1.38;;;6.60;99.90;;;;;;5011221;28;20046;-89
2023/12/22 05:44:41;;;;;;;9.02;0.98;;;6.60;99.90;;;;;;5012669;28;20034;-89
2023/12/22 05:47:07;;;;;;;4.38;0.57;;;6.60;99.90;;;;;;5011817;28;20491;-89
2023/12/22 05:49:33;;;;;;;7.00;0.68;;;6.60;99.90;;;;;;4996065;28;20504;-90
2023/12/22 05:51:59;;;;;;;10.98;1.98;;;6.60;99.90;;;;;;4995601;28;20091;-89
2023/12/22 05:54:25;;;;;;;6.45;1.10;;;6.60;99.90;;;;;;4996306;28;20037;-90
2023/12/22 05:56:51;;;;;;;3.55;0.98;;;6.60;99.90;;;;;;4995710;28;20041;-90
2023/12/22 05:59:17;;;;;;;6.32;0.77;;;6.60;99.90;;;;;;4995886;28;20444;-89
2023/12/22 06:01:43;;;;;;;6.57;2.30;;;6.60;99.90;;;;;;5012282;28;20136;-89
2023/12/22 06:04:09;;;;;;;8.43;1.88;;;6.60;99.90;;;;;;5011337;28;20037;-89
2023/12/22 06:06:36;;;;;;;7.60;1.88;;;6.60;99.90;;;;;;5012060;28;20040;-89
2023/12/22 06:09:02;;;;;;;12.77;2.38;;;6.60;99.90;;;;;;4996061;28;20103;-90
2023/12/22 06:11:27;;;;;;;11.13;2.20;;;6.60;99.90;;;;;;4994385;28;20781;-90
2023/12/22 06:13:53;;;;;;;8.30;1.85;;;6.60;99.90;;;;;;5012181;28;20111;-89
2023/12/22 06:16:18;;;;;;;13.40;2.42;;;6.60;99.90;;;;;;4996038;28;20124;-90
2023/12/22 06:18:44;;;;;;;14.77;1.83;;;6.70;99.90;;;;;;4995848;28;20686;-89
2023/12/22 06:21:10;;;;;;;8.82;2.30;;;6.70;99.90;;;;;;4995602;28;20095;-89
2023/12/22 06:23:36;;;;;;;7.00;2.05;;;6.70;99.90;;;;;;4994748;28;20037;-89
2023/12/22 06:26:07;;;;;;;7.28;1.23;;;6.70;99.90;;;;;;5011974;28;20033;-88
2023/12/22 06:28:36;;;;;;;6.18;1.38;;;6.70;99.90;;;;;;4993095;28;20045;-89
2023/12/22 06:31:01;;;;;;;12.50;2.28;;;6.70;99.90;;;;;;4993951;28;20444;-90
2023/12/22 06:33:27;;;;;;;12.10;2.70;;;6.80;99.90;;;;;;5011312;28;20557;-90
2023/12/22 06:35:53;;;;;;;11.20;1.45;;;6.80;99.90;;;;;;4995272;28;20037;-90
2023/12/22 06:38:19;;;;;;;13.05;1.67;;;6.80;99.90;;;;;;5012169;28;20116;-90
2023/12/22 06:40:46;;;;;;;7.30;1.17;;;6.80;99.90;;;;;;4994563;28;20420;-91
2023/12/22 06:43:12;;;;;;;6.32;1.10;;;6.80;99.90;;;;;;4994918;28;20128;-90
2023/12/22 06:45:39;;;;;;;14.32;2.20;;;6.80;99.90;;;;;;4995027;28;20544;-89
2023/12/22 06:48:06;;;;;;;8.20;1.67;;;6.80;99.90;;;;;;5009994;28;20037;-88
2023/12/22 06:50:32;;;;;;;5.03;0.90;;;6.80;99.90;;;;;;4994927;28;20500;-89
2023/12/22 06:52:57;;;;;;;17.15;2.65;;;6.80;99.90;;;;;;5010362;28;20040;-89
2023/12/22 06:55:23;;;;;;;14.35;1.42;;;6.80;99.90;;;;;;4995614;28;20500;-90
2023/12/22 06:57:49;;;;;;;7.22;1.10;;;6.80;99.90;;;;;;5011135;28;20077;-88
2023/12/22 07:00:15;;;;;;;12.88;2.15;;;6.80;99.90;;;;;;4994830;28;20099;-89
2023/12/22 07:02:40;;;;;;;13.10;1.75;;;6.80;99.90;;;;;;4994953;28;20088;-89
2023/12/22 07:05:09;;;;;;;3.50;1.08;;;6.80;99.90;;;;;;4994287;28;20061;-89
2023/12/22 07:07:36;;;;;;;5.97;1.40;;;6.90;99.90;;;;;;4995035;28;20045;-89
2023/12/22 07:10:05;;;;;;;11.82;1.40;;;6.90;99.90;;;;;;5010877;28;20515;-89
2023/12/22 07:12:30;;;;;;;8.20;1.83;;;7.00;99.90;;;;;;4994746;28;20151;-89
2023/12/22 07:14:56;;;;;;;7.32;1.05;;;7.00;99.90;;;;;;4993409;28;20556;-89
2023/12/22 07:17:21;;;;;;;7.60;0.95;;;7.00;99.90;;;;;;4993989;28;20049;-89
2023/12/22 07:19:47;;;;;;;11.68;2.50;;;7.00;99.90;;;;;;4995204;28;20037;-89
2023/12/22 07:22:14;;;;;;;2.00;0.75;;;7.00;99.90;;;;;;4993646;28;20049;-89
2023/12/22 07:24:40;;;;;;;8.40;1.30;;;7.00;99.90;;;;;;4994950;28;20029;-89
2023/12/22 07:27:06;;;;;;;5.93;1.55;;;7.00;99.90;;;;;;4995241;28;20555;-89
2023/12/22 07:29:31;;;;;;;17.60;2.08;;;7.00;99.90;;;;;;4994304;28;20045;-89
2023/12/22 07:31:57;;;;;;;10.98;2.15;;;7.10;99.90;;;;;;5011667;28;20053;-89
2023/12/22 07:34:22;;;;;;;5.93;1.20;;;7.00;99.90;;;;;;5012159;28;20041;-89
2023/12/22 07:36:48;;;;;;;10.88;2.47;;;7.10;99.90;;;;;;5013949;28;20037;-89
2023/12/22 07:39:14;;;;;;;3.95;1.00;;;7.00;99.90;;;;;;4997294;28;20048;-89
2023/12/22 07:41:40;;;;;;;4.47;1.23;;;7.10;99.90;;;;;;5010293;28;20049;-89
2023/12/22 07:44:05;;;;;;;8.43;1.17;;;7.00;99.90;;;;;;4994246;28;20044;-89
2023/12/22 07:46:31;;;;;;;4.05;0.80;;;7.10;99.90;;;;;;4993919;28;20033;-89
2023/12/22 07:48:57;;;;;;;2.72;0.93;;;7.00;99.90;;;;;;4994377;28;20033;-90
2023/12/22 07:51:22;;;;;;;5.05;0.65;;;7.10;99.90;;;;;;4994234;28;20033;-89
2023/12/22 07:53:48;;;;;;;13.20;1.35;;;7.10;99.90;;;;;;4993481;28;20037;-89
2023/12/22 07:56:14;;;;;;;5.72;1.55;;;7.10;99.90;;;;;;4994520;28;20087;-90
2023/12/22 07:58:39;;;;;;;3.70;0.77;;;7.10;99.90;;;;;;5009945;28;20045;-89
2023/12/22 08:01:07;;;;;;;8.82;1.52;;;7.10;99.90;;;;;;4994266;28;20124;-90
2023/12/22 08:03:33;;;;;;;5.30;0.70;;;7.10;99.90;;;;;;4993207;28;20056;-89
2023/12/22 08:05:59;;;;;;;10.70;2.42;;;7.10;99.90;;;;;;5006280;28;20037;-89
2023/12/22 08:08:24;;;;;;;4.45;1.25;;;7.10;99.90;;;;;;4993870;28;20095;-89
2023/12/22 08:10:50;;;;;;;2.38;0.50;;;7.10;99.90;;;;;;5008971;28;20029;-89
2023/12/22 08:13:17;;;;;;;6.10;1.48;;;7.10;99.90;;;;;;4993656;28;20462;-89
2023/12/22 08:15:43;;;;;;;12.20;1.98;;;7.10;99.90;;;;;;5010297;28;20034;-89
2023/12/22 08:18:09;;;;;;;9.57;1.95;;;7.10;99.90;;;;;;4993669;28;20124;-89
2023/12/22 08:20:35;;;;;;;9.15;1.13;;;7.10;99.90;;;;;;4993514;28;20108;-90
2023/12/22 08:23:00;;;;;;;13.00;1.50;;;7.10;99.90;;;;;;5009354;28;20041;-89
2023/12/22 08:25:26;;;;;;;8.43;0.82;;;7.10;99.90;;;;;;4993496;28;20038;-90
2023/12/22 08:27:52;;;;;;;9.50;0.93;;;7.10;99.90;;;;;;5010518;28;20029;-90
2023/12/22 08:30:17;;;;;;;9.88;2.13;;;7.10;99.90;;;;;;4991644;28;20507;-88
2023/12/22 08:32:43;;;;;;;1.55;0.43;;;7.10;99.90;;;;;;4993478;28;20067;-89
2023/12/22 08:35:09;;;;;;;7.95;1.13;;;7.10;99.90;;;;;;5011766;28;20095;-89
2023/12/22 08:37:34;;;;;;;7.63;1.63;;;7.10;99.90;;;;;;5014264;28;20044;-89
2023/12/22 08:40:00;;;;;;;10.30;1.50;;;7.10;99.90;;;;;;5013067;28;20041;-89
2023/12/22 08:42:27;;;;;;;6.07;0.75;;;7.10;99.90;;;;;;4996300;28;20488;-89
2023/12/22 08:44:53;;;;;;;4.43;1.15;;;7.10;99.90;;;;;;5010865;28;20652;-89
2023/12/22 08:47:19;;;;;;;7.53;1.35;;;7.10;99.90;;;;;;5013384;28;20049;-89
2023/12/22 08:49:44;;;;;;;10.50;1.92;;;7.00;99.90;;;;;;4997833;28;20048;-89
2023/12/22 08:52:10;;;;;;;4.50;0.80;;;7.00;99.90;;;;;;4997025;28;20038;-88
2023/12/22 08:54:36;;;;;;;9.98;2.05;;;7.00;99.90;;;;;;4997153;28;20041;-88
2023/12/22 08:57:04;;;;;;;8.27;1.55;;;7.00;99.90;;;;;;5013746;28;20558;-88
2023/12/22 08:59:30;;;;;;;10.38;1.38;;;7.00;99.90;;;;;;4997666;28;20555;-89
2023/12/22 09:01:55;;;;;;;5.30;1.02;;;7.00;99.90;;;;;;4996731;28;20128;-88
2023/12/22 09:04:22;;;;;;;4.22;1.23;;;7.00;99.90;;;;;;4996548;28;20049;-90
2023/12/22 09:06:51;;;;;;;6.95;1.08;;;7.00;99.90;;;;;;5013893;28;20037;-89
2023/12/22 09:09:17;;;;;;;6.18;1.45;;;7.10;99.90;;;;;;5012514;28;20087;-88
2023/12/22 09:11:43;;;;;;;8.52;1.38;;;7.10;99.90;;;;;;4997402;28;20041;-89
2023/12/22 09:14:09;;;;;;;2.50;0.88;;;7.10;99.90;;;;;;4996934;28;20052;-89
2023/12/22 09:16:36;;;;;;;2.60;0.40;;;7.10;99.90;;;;;;4997015;28;20042;-89
2023/12/22 09:19:02;;;;;;;4.65;1.17;;;7.20;99.90;;;;;;4997037;28;20051;-89
2023/12/22 09:21:28;;;;;;;1.65;0.77;;;7.20;99.90;;;;;;4996853;28;20034;-89
2023/12/22 09:23:54;;;;;;;1.95;0.20;;;7.20;99.90;;;;;;4996856;28;20042;-90
2023/12/22 09:26:20;;;;;;;2.63;0.68;;;7.30;99.90;;;;;;5013250;28;20129;-89
2023/12/22 09:28:46;;;;;;;9.35;1.38;;;7.30;99.90;;;;;;4996831;28;20033;-90
2023/12/22 09:31:14;;;;;;;2.70;0.60;;;7.40;99.90;;;;;;5012911;28;20048;-90
2023/12/22 09:33:41;;;;;;;3.53;0.75;;;7.50;99.90;;;;;;4995865;28;20041;-90
2023/12/22 09:36:07;;;;;;;2.33;0.68;;;7.50;99.90;;;;;;4996258;28;20489;-90
2023/12/22 09:38:33;;;;;;;1.80;0.50;;;7.50;99.90;;;;;;4997096;28;20043;-89
2023/12/22 09:40:59;;;;;;;2.13;0.50;;;7.50;99.90;;;;;;5012925;28;20120;-90
2023/12/22 09:43:25;;;;;;;5.05;0.80;;;7.40;99.90;;;;;;4996126;28;20138;-89
2023/12/22 09:45:52;;;;;;;5.20;0.90;;;7.50;99.90;;;;;;4993681;28;20757;-89
2023/12/22 09:48:20;;;;;;;4.22;0.82;;;7.40;99.90;;;;;;5013621;28;20550;-89
2023/12/22 09:50:46;;;;;;;3.65;0.50;;;7.40;99.90;;;;;;4996080;28;20120;-88
2023/12/22 09:53:16;;;;;;;3.72;0.32;;;7.40;99.90;;;;;;4996631;28;20128;-88
2023/12/22 09:55:46;;;;;;;5.60;0.47;;;7.40;99.90;;;;;;4999118;28;20416;-89
2023/12/22 09:58:16;;;;;;;1.10;0.43;;;7.40;99.90;;;;;;5002415;28;20052;-89
2023/12/22 10:00:43;;;;;;;2.03;0.63;;;7.30;99.90;;;;;;5013174;28;20615;-89
2023/12/22 10:03:11;;;;;;;5.50;1.10;;;7.30;99.90;;;;;;5012460;28;20060;-89
2023/12/22 10:05:37;;;;;;;2.67;0.35;;;7.30;99.90;;;;;;4996053;28;20041;-89
2023/12/22 10:08:05;;;;;;;5.28;1.10;;;7.30;99.90;;;;;;4995725;28;20037;-89
2023/12/22 10:10:32;;;;;;;3.92;0.63;;;7.30;99.90;;;;;;4995201;28;20567;-89
2023/12/22 10:12:59;;;;;;;3.97;0.75;;;7.30;99.90;;;;;;4994141;28;20056;-89
2023/12/22 10:15:26;;;;;;;3.58;0.65;;;7.30;99.90;;;;;;4994923;28;20074;-87
2023/12/22 10:17:55;;;;;;;5.82;1.25;;;7.30;99.90;;;;;;4996126;28;20041;-89
2023/12/22 10:20:22;;;;;;;4.80;1.15;;;7.30;99.90;;;;;;5012925;28;20154;-89
2023/12/22 10:22:48;;;;;;;5.82;1.17;;;7.20;99.90;;;;;;4996163;28;20112;-89
2023/12/22 10:25:18;;;;;;;7.53;1.17;;;7.20;99.90;;;;;;4995963;28;20116;-88
2023/12/22 10:27:44;;;;;;;3.42;0.45;;;7.20;99.90;;;;;;4996705;28;20102;-89
2023/12/22 10:30:10;;;;;;;4.15;1.33;;;7.20;99.90;;;;;;5028476;28;20451;-89
2023/12/22 10:32:43;;;;;;;7.25;1.10;;;7.10;99.90;;;;;;5012063;28;20040;-88
2023/12/22 10:35:09;;;;;;;10.05;1.48;;;7.10;99.90;;;;;;4993594;28;20092;-89
2023/12/22 10:37:35;;;;;;;4.72;0.70;;;7.10;99.90;;;;;;4996049;28;20045;-90
2023/12/22 10:40:04;;;;;;;8.65;1.58;;;7.10;99.90;;;;;;4995204;28;20057;-90
2023/12/22 10:42:30;;;;;;;6.00;0.75;;;7.10;99.90;;;;;;4995681;28;20037;-90
2023/12/22 10:44:56;;;;;;;8.13;1.23;;;7.00;99.90;;;;;;4996038;28;20042;-89
2023/12/22 10:47:23;;;;;;;5.53;1.15;;;7.00;99.90;;;;;;5012123;28;20037;-90
2023/12/22 10:49:48;;;;;;;4.57;1.00;;;7.00;99.90;;;;;;5012496;28;20042;-90
2023/12/22 10:52:20;;;;;;;5.72;1.17;;;7.00;99.90;;;;;;4994156;28;20041;-90
2023/12/22 10:54:47;;;;;;;7.05;1.35;;;7.00;99.90;;;;;;5011438;28;20053;-90
2023/12/22 10:57:16;;;;;;;4.60;0.85;;;7.00;99.90;;;;;;4995484;28;20496;-90
2023/12/22 10:59:46;;;;;;;4.95;0.85;;;7.00;99.90;;;;;;4994824;28;20037;-90
2023/12/22 11:02:18;;;;;;;4.05;0.82;;;7.00;99.90;;;;;;5011847;28;20041;-90
2023/12/22 11:05:01;;;;;;;4.53;0.80;;;7.00;99.90;;;;;;4995099;28;20174;-90
2023/12/22 11:07:28;;;;;;;1.55;0.73;;;7.00;99.90;;;;;;5011198;28;20037;-89
2023/12/22 11:09:57;;;;;;;2.78;0.75;;;7.00;99.90;;;;;;5012115;28;20535;-90
2023/12/22 11:12:25;;;;;;;0.90;0.20;;;7.10;99.90;;;;;;4993907;28;20045;-90
2023/12/22 11:14:53;;;;;;;3.00;0.32;;;7.10;99.90;;;;;;4995127;28;20064;-89
2023/12/22 11:17:22;;;;;;;1.55;0.45;;;7.10;99.90;;;;;;4992862;28;20037;-89
2023/12/22 11:19:52;;;;;;;0.57;0.20;;;7.10;99.90;;;;;;4994676;28;20180;-90
2023/12/22 11:22:19;;;;;;;0.95;0.20;;;7.10;99.90;;;;;;4994421;28;20127;-90
2023/12/22 11:24:50;;;;;;;2.38;0.50;;;7.20;99.90;;;;;;4994413;28;20045;-90
2023/12/22 11:27:20;;;;;;;1.38;0.30;;;7.20;99.90;;;;;;5010842;28;20116;-91
2023/12/22 11:29:51;;;;;;;1.55;0.45;;;7.20;99.90;;;;;;5011350;28;20025;-89
2023/12/22 11:32:18;;;;;;;1.20;0.38;;;7.20;99.90;;;;;;4993800;28;20041;-90
2023/12/22 11:34:47;;;;;;;0.90;0.30;;;7.20;99.90;;;;;;4993351;28;20961;-90
2023/12/22 11:37:16;;;;;;;1.45;0.40;;;7.30;99.90;;;;;;4994777;28;20400;-90
2023/12/22 11:39:43;;;;;;;5.18;0.63;;;7.30;99.90;;;;;;4994929;28;20408;-90
2023/12/22 11:42:18;;;;;;;1.17;0.38;;;7.30;99.90;;;;;;4994117;28;20501;-90
2023/12/22 11:44:44;;;;;;;4.53;0.28;;;7.30;99.90;;;;;;4994506;28;20045;-90
2023/12/22 11:47:13;;;;;;;0.70;0.40;;;7.30;99.90;;;;;;4994565;28;20532;-90
2023/12/22 11:49:38;;;;;;;1.38;0.30;;;7.30;99.90;;;;;;4994964;28;20115;-89
2023/12/22 11:52:15;;;;;;;2.08;0.40;;;7.30;99.90;;;;;;4994618;28;20397;-90
2023/12/22 11:54:49;;;;;;;0.55;0.17;;;7.40;99.90;;;;;;5009803;28;20037;-90
2023/12/22 11:57:27;;;;;;;2.17;0.22;;;7.30;99.90;;;;;;4986296;28;20052;-90
2023/12/22 11:59:53;;;;;;;2.90;0.68;;;7.40;99.90;;;;;;5010397;28;20044;-90
2023/12/22 12:02:18;;;;;;;1.88;0.40;;;7.40;99.90;;;;;;4994515;28;20037;-90
2023/12/22 12:04:47;;;;;;;1.10;0.30;;;7.40;99.90;;;;;;4994456;28;20046;-89
2023/12/22 12:07:45;;;;;;;1.90;0.40;;;7.40;99.90;;;;;;4993623;28;20045;-89
2023/12/22 12:10:35;;;;;;;2.83;0.38;;;7.40;99.90;;;;;;4993383;28;20121;-89
2023/12/22 12:13:10;;;;;;;4.00;0.40;;;7.50;99.90;;;;;;4982215;28;20591;-89
2023/12/22 12:15:37;;;;;;;8.20;1.08;;;7.50;99.90;;;;;;4995751;28;20041;-89
2023/12/22 12:18:05;;;;;;;1.20;0.25;;;7.50;99.90;;;;;;4994645;28;20514;-90
2023/12/22 12:20:32;;;;;;;2.83;0.38;;;7.50;99.90;;;;;;5017514;28;20101;-89
2023/12/22 12:22:58;;;;;;;5.72;1.05;;;7.50;99.90;;;;;;5013021;28;20052;-89
2023/12/22 12:25:26;;;;;;;4.18;0.65;;;7.50;99.90;;;;;;5010925;28;20034;-89
2023/12/22 12:28:02;;;;;;;2.28;0.28;;;7.50;99.90;;;;;;4993958;28;20052;-89
2023/12/22 12:30:28;;;;;;;2.72;0.50;;;7.60;99.90;;;;;;5008539;28;20083;-89
2023/12/22 12:32:54;;;;;;;1.40;0.63;;;7.60;99.90;;;;;;4994256;28;20037;-89
2023/12/22 12:35:23;;;;;;;7.40;0.80;;;7.50;99.90;;;;;;5007111;28;20033;-89
2023/12/22 12:37:49;;;;;;;0.45;0.15;;;7.50;99.90;;;;;;4994179;28;20041;-89
2023/12/22 12:40:18;;;;;;;0.35;0.35;;;7.60;99.90;;;;;;5008887;28;20072;-89
2023/12/22 12:42:44;;;;;;;2.08;0.47;;;7.60;99.90;;;;;;4993091;28;20112;-90
2023/12/22 12:45:10;;;;;;;2.60;0.50;;;7.60;99.90;;;;;;4993152;28;20786;-89
2023/12/22 12:47:36;;;;;;;4.28;0.73;;;7.60;99.90;;;;;;5007204;28;20072;-89
2023/12/22 12:50:02;;;;;;;2.78;0.38;;;7.60;99.90;;;;;;4993518;28;20124;-89
2023/12/22 12:52:28;;;;;;;1.80;0.22;;;7.60;99.90;;;;;;4993351;28;20041;-90
2023/12/22 12:54:55;;;;;;;2.92;2.05;;;7.60;99.90;;;;;;4992864;28;20041;-89